Highland Park, Pennsylvania
Current Conditions -  °F | °C
As of 4:54 AM on Sunday 25 Jan 2015 (Local Time) from KPHL Reporting Station
Scattered Clouds Scattered Clouds  
Wind Chill: 26°   Ceiling: Unl
Heat Index: 34°   Visibility: 10mi
Dew Point: 27°   Wind: 10mph
Humidity: 75%   Direction: 230°SW
Pressure: 29.7"   Gusts: NA
Location:  39.9602°N, 75.2702°W
Report Text: KPHL 250954Z 23009KT 10SM FEW035 SCT070 SCT250 01/M03 A2970 RMK AO2 SLP057 T00111028
Loading
Personal Weather Stations






























Interactive Weather Map New forecast layout! Learn more

10-Day Weather Forecast

Advertisements
Track Severe Weather on mobile